Terminal Aerodrome Forecast
Issued by NWS

Home | Current Version | Previous Version | Text Only | Print | Product List | Glossary On
Versions: 1 2 3 4 5 6 7 8 9 10 11 12
000
FTUS45 KABQ 290539
TAFSAF
TAF
KSAF 290539Z 2906/3006 36009KT P6SM BKN110
     FM291900 13011KT P6SM VCSH SCT070 BKN100 PROB30 2921/2924
      VRB15G25KT 6SM -TSRA BKN070CB=

USA.gov is the U.S. government's official web portal to all federal, state and local government web resources and services.